^^
Your Local Weather - Clay, NY Station Historical Data
Daily Summary for February 28, 2018 Units:  English    Metric   Both
« Previous Day
Next Day »
Daily Weekly Monthly Yearly Custom
  High: Low: Average:
Temperature: 62.4 °F 31.2 °F 46 °F
Dew Point: 43.5 °F 25.1 °F 33.1 °F
Humidity: 87% 29% 66%
Wind Speed: 9.0mph 0.0mph 2mph
Wind Gust: 13.0mph - -
Wind- - SW
Pressure: 30.05 in 29.73 in -
Precipitation: 0.02 in    
Historical Graphs
 
 
Tabular Data for February 28, 2018
Time Temperature Dew Point Pressure Wind Wind Speed Wind Gust Humidity Rainfall Rate (Hourly) solar
00:04 34.1 °F 25.3 °F 30.04 in Calm     70% 0.00 in 0 W/m2
00:10 34.2 °F 25.8 °F 30.04 in Calm     71% 0.00 in 0 W/m2
00:16 34.3 °F 25.9 °F 30.05 in Calm     71% 0.00 in 0 W/m2
00:22 34.3 °F 25.9 °F 30.04 in Calm     71% 0.00 in 0 W/m2
00:28 34.2 °F 25.8 °F 30.04 in Calm     71% 0.00 in 0 W/m2
00:34 34.0 °F 25.9 °F 30.04 in Calm     72% 0.00 in 0 W/m2
00:40 33.8 °F 25.7 °F 30.04 in Calm     72% 0.00 in 0 W/m2
00:46 33.6 °F 25.9 °F 30.03 in Calm     73% 0.00 in 0 W/m2
00:52 33.5 °F 25.8 °F 30.03 in Calm     73% 0.00 in 0 W/m2
00:58 33.5 °F 26.4 °F 30.03 in Calm     75% 0.00 in 0 W/m2
01:04 33.4 °F 26.6 °F 30.03 in Calm     76% 0.00 in 0 W/m2
01:10 33.2 °F 26.8 °F 30.03 in Calm     77% 0.00 in 0 W/m2
01:16 32.9 °F 26.5 °F 30.03 in Calm     77% 0.00 in 0 W/m2
01:22 32.7 °F 26.6 °F 30.03 in Calm     78% 0.00 in 0 W/m2
01:28 32.5 °F 26.7 °F 30.03 in Calm     79% 0.00 in 0 W/m2
01:34 32.3 °F 26.8 °F 30.03 in Calm     80% 0.00 in 0 W/m2
01:40 32.3 °F 27.1 °F 30.03 in Calm     81% 0.00 in 0 W/m2
01:46 32.1 °F 26.9 °F 30.03 in Calm     81% 0.00 in 0 W/m2
01:52 32.1 °F 26.9 °F 30.03 in Calm     81% 0.00 in 0 W/m2
01:58 32.1 °F 26.9 °F 30.03 in Calm   1.0 mph 81% 0.00 in 0 W/m2
02:04 32.2 °F 27.0 °F 30.03 in Calm     81% 0.00 in 0 W/m2
02:10 32.3 °F 27.1 °F 30.03 in Calm     81% 0.00 in 0 W/m2
02:16 32.3 °F 27.1 °F 30.03 in Calm     81% 0.00 in 0 W/m2
02:22 32.6 °F 27.7 °F 30.02 in Calm     82% 0.00 in 0 W/m2
02:28 32.9 °F 28.0 °F 30.02 in Calm     82% 0.00 in 0 W/m2
02:34 33.1 °F 28.2 °F 30.02 in Calm     82% 0.00 in 0 W/m2
02:40 33.3 °F 28.4 °F 30.02 in Calm     82% 0.00 in 0 W/m2
02:46 33.4 °F 28.2 °F 30.02 in Calm     81% 0.00 in 0 W/m2
02:52 33.6 °F 28.7 °F 30.01 in Calm     82% 0.00 in 0 W/m2
02:58 33.6 °F 29.0 °F 30.01 in Calm     83% 0.00 in 0 W/m2
03:04 33.6 °F 29.0 °F 30.01 in Calm     83% 0.00 in 0 W/m2
03:10 33.4 °F 28.8 °F 30.00 in Calm     83% 0.00 in 0 W/m2
03:16 33.4 °F 28.8 °F 30.00 in Calm     83% 0.00 in 0 W/m2
03:22 33.4 °F 28.8 °F 30.00 in Calm     83% 0.00 in 0 W/m2
03:28 33.4 °F 28.8 °F 30.00 in Calm     83% 0.00 in 0 W/m2
03:34 33.5 °F 28.9 °F 30.00 in Calm     83% 0.00 in 0 W/m2
03:40 33.5 °F 28.9 °F 30.00 in Calm     83% 0.00 in 0 W/m2
03:46 33.5 °F 28.9 °F 30.00 in Calm     83% 0.00 in 0 W/m2
03:52 33.6 °F 29.0 °F 29.99 in Calm     83% 0.00 in 0 W/m2
03:58 33.7 °F 29.1 °F 29.99 in SW 1.0 mph 3.0 mph 83% 0.00 in 0 W/m2
04:04 33.8 °F 29.2 °F 29.99 in SW 1.0 mph 1.0 mph 83% 0.00 in 0 W/m2
04:10 33.9 °F 29.3 °F 29.98 in Calm     83% 0.00 in 0 W/m2
04:16 33.9 °F 29.3 °F 29.98 in Calm     83% 0.00 in 0 W/m2
04:22 34.0 °F 29.4 °F 29.98 in Calm     83% 0.00 in 0 W/m2
04:28 34.1 °F 29.8 °F 29.98 in Calm     84% 0.00 in 0 W/m2
04:34 34.2 °F 29.9 °F 29.98 in Calm     84% 0.00 in 0 W/m2
04:40 34.3 °F 30.0 °F 29.98 in Calm     84% 0.00 in 0 W/m2
04:46 34.3 °F 29.7 °F 29.98 in Calm     83% 0.00 in 0 W/m2
04:52 34.3 °F 29.7 °F 29.98 in Calm     83% 0.00 in 0 W/m2
04:58 34.3 °F 29.4 °F 29.98 in Calm     82% 0.00 in 0 W/m2
05:04 34.3 °F 29.4 °F 29.98 in Calm     82% 0.00 in 0 W/m2
05:10 34.3 °F 29.1 °F 29.98 in Calm     81% 0.00 in 0 W/m2
05:16 34.2 °F 29.3 °F 29.98 in Calm     82% 0.00 in 0 W/m2
05:22 34.0 °F 29.1 °F 29.97 in Calm     82% 0.00 in 0 W/m2
05:28 33.9 °F 29.0 °F 29.97 in Calm     82% 0.00 in 0 W/m2
05:34 33.7 °F 28.8 °F 29.97 in Calm     82% 0.00 in 0 W/m2
05:40 33.5 °F 28.6 °F 29.97 in Calm     82% 0.00 in 0 W/m2
05:46 33.3 °F 28.4 °F 29.97 in Calm     82% 0.00 in 0 W/m2
05:52 33.0 °F 28.4 °F 29.97 in Calm     83% 0.00 in 0 W/m2
05:58 32.8 °F 28.2 °F 29.97 in Calm     83% 0.00 in 0 W/m2
06:04 32.6 °F 28.3 °F 29.97 in Calm     84% 0.00 in 0 W/m2
06:10 32.5 °F 28.2 °F 29.97 in Calm     84% 0.00 in 0 W/m2
06:16 32.3 °F 28.0 °F 29.96 in Calm     84% 0.00 in 0 W/m2
06:22 32.1 °F 27.8 °F 29.96 in Calm     84% 0.00 in 0 W/m2
06:28 32.0 °F 28.0 °F 29.96 in Calm     85% 0.00 in 0 W/m2
06:34 31.9 °F 27.9 °F 29.95 in Calm   2.0 mph 85% 0.00 in 0 W/m2
06:40 31.8 °F 27.8 °F 29.95 in Calm     85% 0.00 in 0 W/m2
06:46 31.5 °F 27.5 °F 29.95 in Calm     85% 0.00 in 5 W/m2
06:52 31.3 °F 27.3 °F 29.95 in Calm     85% 0.00 in 9 W/m2
06:58 31.2 °F 27.2 °F 29.95 in Calm     85% 0.00 in 16 W/m2
07:04 31.2 °F 27.2 °F 29.95 in Calm     85% 0.00 in 21 W/m2
07:10 31.4 °F 27.7 °F 29.95 in Calm     86% 0.00 in 25 W/m2
07:16 31.5 °F 27.8 °F 29.95 in Calm     86% 0.00 in 28 W/m2
07:22 31.6 °F 27.9 °F 29.95 in Calm     86% 0.00 in 32 W/m2
07:28 31.8 °F 28.1 °F 29.95 in Calm     86% 0.00 in 44 W/m2
07:34 31.9 °F 28.2 °F 29.95 in Calm     86% 0.00 in 54 W/m2
07:40 32.1 °F 28.4 °F 29.94 in Calm     86% 0.00 in 98 W/m2
07:46 32.4 °F 28.7 °F 29.94 in Calm     86% 0.00 in 93 W/m2
07:52 32.8 °F 29.1 °F 29.94 in Calm     86% 0.00 in 121 W/m2
07:58 33.6 °F 29.9 °F 29.94 in Calm     86% 0.00 in 49 W/m2
08:04 34.5 °F 30.5 °F 29.94 in Calm     85% 0.00 in 76 W/m2
08:10 35.7 °F 31.3 °F 29.93 in Calm     84% 0.00 in 127 W/m2
08:16 37.0 °F 32.3 °F 29.93 in Calm     83% 0.00 in 162 W/m2
08:22 38.5 °F 33.5 °F 29.93 in Calm     82% 0.00 in 160 W/m2
08:28 39.8 °F 34.4 °F 29.93 in Calm   1.0 mph 81% 0.00 in 156 W/m2
08:34 41.2 °F 34.5 °F 29.93 in Calm     77% 0.00 in 135 W/m2
08:40 43.4 °F 32.8 °F 29.92 in Calm   1.0 mph 66% 0.00 in 278 W/m2
08:46 46.2 °F 32.2 °F 29.92 in SW 1.0 mph 2.0 mph 58% 0.00 in 345 W/m2
08:52 48.1 °F 27.7 °F 29.92 in SSE 2.0 mph 3.0 mph 45% 0.00 in 200 W/m2
08:58 49.1 °F 27.5 °F 29.92 in South 2.0 mph 3.0 mph 43% 0.00 in 160 W/m2
09:04 49.1 °F 27.0 °F 29.92 in South 2.0 mph 3.0 mph 42% 0.00 in 229 W/m2
09:10 50.2 °F 26.8 °F 29.92 in SSW 2.0 mph 3.0 mph 40% 0.00 in 265 W/m2
09:16 50.4 °F 26.3 °F 29.92 in South 3.0 mph 5.0 mph 39% 0.00 in 165 W/m2
09:22 50.2 °F 26.2 °F 29.91 in South 3.0 mph 6.0 mph 39% 0.00 in 163 W/m2
09:28 50.3 °F 25.6 °F 29.91 in SSW 3.0 mph 6.0 mph 38% 0.00 in 207 W/m2
09:34 51.4 °F 26.6 °F 29.91 in SW 3.0 mph 3.0 mph 38% 0.00 in 492 W/m2
09:40 51.7 °F 27.5 °F 29.90 in SSW 2.0 mph 4.0 mph 39% 0.00 in 271 W/m2
09:46 52.0 °F 25.2 °F 29.89 in SSW 3.0 mph 5.0 mph 35% 0.00 in 276 W/m2
09:52 52.3 °F 26.1 °F 29.89 in South 5.0 mph 8.0 mph 36% 0.00 in 209 W/m2
09:58 52.3 °F 26.8 °F 29.89 in SSW 6.0 mph 8.0 mph 37% 0.00 in 311 W/m2
10:04 53.3 °F 26.3 °F 29.89 in South 4.0 mph 5.0 mph 35% 0.00 in 552 W/m2
10:10 53.8 °F 26.1 °F 29.88 in SSW 5.0 mph 7.0 mph 34% 0.00 in 619 W/m2
10:16 54.1 °F 26.3 °F 29.88 in WSW 6.0 mph 7.0 mph 34% 0.00 in 575 W/m2
10:22 55.0 °F 26.4 °F 29.88 in SSW 5.0 mph 5.0 mph 33% 0.00 in 598 W/m2
10:28 54.6 °F 26.8 °F 29.87 in SSW 5.0 mph 10.0 mph 34% 0.00 in 580 W/m2
10:34 55.3 °F 27.4 °F 29.87 in SSE 5.0 mph 5.0 mph 34% 0.00 in 468 W/m2
10:40 55.3 °F 26.7 °F 29.87 in SSW 4.0 mph 8.0 mph 33% 0.00 in 598 W/m2
10:46 55.2 °F 28.0 °F 29.87 in SSW 5.0 mph 8.0 mph 35% 0.00 in 610 W/m2
10:52 55.9 °F 27.2 °F 29.86 in SSW 4.0 mph 5.0 mph 33% 0.00 in 638 W/m2
10:58 55.7 °F 27.0 °F 29.86 in South 5.0 mph 10.0 mph 33% 0.00 in 575 W/m2
11:04 55.8 °F 26.3 °F 29.86 in SW 5.0 mph 6.0 mph 32% 0.00 in 411 W/m2
11:10 56.1 °F 26.6 °F 29.86 in SW 4.0 mph 6.0 mph 32% 0.00 in 650 W/m2
11:16 56.6 °F 27.8 °F 29.86 in SSE 5.0 mph 7.0 mph 33% 0.00 in 691 W/m2
11:22 56.2 °F 25.1 °F 29.86 in SW 5.0 mph 7.0 mph 30% 0.00 in 649 W/m2
11:28 56.9 °F 26.5 °F 29.85 in South 4.0 mph 7.0 mph 31% 0.00 in 675 W/m2
11:34 56.9 °F 27.3 °F 29.84 in SE 5.0 mph 5.0 mph 32% 0.00 in 403 W/m2
11:40 57.6 °F 27.9 °F 29.84 in SW 5.0 mph 7.0 mph 32% 0.00 in 814 W/m2
11:46 56.8 °F 26.5 °F 29.83 in South 5.0 mph 8.0 mph 31% 0.00 in 288 W/m2
11:52 56.7 °F 26.4 °F 29.83 in SSW 6.0 mph 6.0 mph 31% 0.00 in 403 W/m2
11:58 58.2 °F 26.1 °F 29.83 in SSW 5.0 mph 8.0 mph 29% 0.00 in 744 W/m2
12:04 58.1 °F 26.8 °F 29.83 in SW 5.0 mph 5.0 mph 30% 0.00 in 684 W/m2
12:10 59.0 °F 27.6 °F 29.82 in SW 4.0 mph 4.0 mph 30% 0.00 in 738 W/m2
12:16 59.7 °F 31.3 °F 29.81 in SSE 3.0 mph 6.0 mph 34% 0.00 in 687 W/m2
12:22 59.8 °F 29.1 °F 29.81 in SW 4.0 mph 11.0 mph 31% 0.00 in 773 W/m2
12:28 59.3 °F 30.2 °F 29.81 in SSW 5.0 mph 11.0 mph 33% 0.00 in 469 W/m2
12:34 60.5 °F 31.2 °F 29.80 in SE 5.0 mph 8.0 mph 33% 0.00 in 469 W/m2
12:40 60.6 °F 32.1 °F 29.80 in SW 5.0 mph 10.0 mph 34% 0.00 in 469 W/m2
12:46 60.4 °F 31.9 °F 29.80 in South 5.0 mph 10.0 mph 34% 0.00 in 353 W/m2
12:52 60.0 °F 30.8 °F 29.80 in SW 5.0 mph 9.0 mph 33% 0.00 in 403 W/m2
12:58 60.3 °F 30.3 °F 29.79 in South 6.0 mph 9.0 mph 32% 0.00 in 782 W/m2
13:04 60.7 °F 31.4 °F 29.78 in SSW 6.0 mph 6.0 mph 33% 0.00 in 772 W/m2
13:10 60.9 °F 30.0 °F 29.78 in West 6.0 mph 9.0 mph 31% 0.00 in 232 W/m2
13:16 59.7 °F 30.5 °F 29.78 in SSW 6.0 mph 9.0 mph 33% 0.00 in 257 W/m2
13:22 59.7 °F 31.3 °F 29.77 in SSW 5.0 mph 6.0 mph 34% 0.00 in 383 W/m2
13:28 60.4 °F 30.4 °F 29.76 in SSW 5.0 mph 7.0 mph 32% 0.00 in 323 W/m2
13:34 60.1 °F 30.1 °F 29.76 in SSE 5.0 mph 5.0 mph 32% 0.00 in 262 W/m2
13:40 60.0 °F 30.0 °F 29.76 in SSW 5.0 mph 5.0 mph 32% 0.00 in 255 W/m2
13:46 60.7 °F 30.6 °F 29.76 in South 5.0 mph 6.0 mph 32% 0.00 in 380 W/m2
13:52 61.4 °F 31.3 °F 29.76 in SSW 4.0 mph 6.0 mph 32% 0.00 in 297 W/m2
13:58 61.1 °F 31.0 °F 29.76 in South 5.0 mph 6.0 mph 32% 0.00 in 473 W/m2
14:04 61.1 °F 31.8 °F 29.75 in SW 6.0 mph 7.0 mph 33% 0.00 in 633 W/m2
14:10 61.7 °F 32.3 °F 29.75 in SW 5.0 mph 5.0 mph 33% 0.00 in 705 W/m2
14:16 62.4 °F 30.5 °F 29.75 in SSW 4.0 mph 5.0 mph 30% 0.00 in 645 W/m2
14:22 62.4 °F 30.5 °F 29.75 in West 6.0 mph 6.0 mph 30% 0.00 in 628 W/m2
14:28 61.5 °F 29.7 °F 29.75 in SW 7.0 mph 11.0 mph 30% 0.00 in 239 W/m2
14:34 60.6 °F 30.6 °F 29.75 in WSW 7.0 mph 11.0 mph 32% 0.00 in 158 W/m2
14:40 60.1 °F 30.1 °F 29.75 in WSW 6.0 mph 6.0 mph 32% 0.00 in 211 W/m2
14:46 60.2 °F 30.2 °F 29.75 in SSW 5.0 mph 7.0 mph 32% 0.00 in 629 W/m2
14:52 61.4 °F 31.3 °F 29.74 in SW 5.0 mph 11.0 mph 32% 0.00 in 538 W/m2
14:58 61.6 °F 30.6 °F 29.73 in SSW 5.0 mph 11.0 mph 31% 0.00 in 513 W/m2
15:04 61.3 °F 29.6 °F 29.73 in SSW 6.0 mph 8.0 mph 30% 0.00 in 441 W/m2
15:10 61.4 °F 31.3 °F 29.73 in SSW 6.0 mph 6.0 mph 32% 0.00 in 422 W/m2
15:16 61.0 °F 31.7 °F 29.73 in SSW 6.0 mph 8.0 mph 33% 0.00 in 290 W/m2
15:22 60.9 °F 33.0 °F 29.73 in SW 7.0 mph 8.0 mph 35% 0.00 in 304 W/m2
15:30 60.2 °F 31.7 °F 29.73 in SW 7.0 mph 13.0 mph 34% 0.00 in 153 W/m2
15:38 59.8 °F 31.3 °F 29.73 in SW 6.0 mph 13.0 mph 34% 0.00 in 250 W/m2
15:44 60.1 °F 32.3 °F 29.73 in SSW 4.0 mph 6.0 mph 35% 0.00 in 348 W/m2
15:50 60.2 °F 31.7 °F 29.73 in SSW 4.0 mph 4.0 mph 34% 0.00 in 141 W/m2
15:56 60.0 °F 31.5 °F 29.73 in South 4.0 mph 13.0 mph 34% 0.00 in 121 W/m2
16:02 59.5 °F 31.1 °F 29.73 in WSW 5.0 mph 5.0 mph 34% 0.00 in 90 W/m2
16:10 59.2 °F 30.8 °F 29.74 in SW 5.0 mph 10.0 mph 34% 0.00 in 72 W/m2
16:18 58.9 °F 31.3 °F 29.74 in SSW 6.0 mph 10.0 mph 35% 0.00 in 47 W/m2
16:24 58.8 °F 31.9 °F 29.74 in WSW 6.0 mph 9.0 mph 36% 0.00 in 35 W/m2
16:30 58.2 °F 33.3 °F 29.75 in WSW 9.0 mph 9.0 mph 39% 0.00 in 32 W/m2
16:36 56.6 °F 36.6 °F 29.76 in West 9.0 mph 9.0 mph 47% 0.00 in 18 W/m2
16:42 54.4 °F 38.6 °F 29.76 in SW 9.0 mph 9.0 mph 55% 0.00 in 18 W/m2
16:48 52.5 °F 40.3 °F 29.77 in SW 8.0 mph 9.0 mph 63% 0.00 in 21 W/m2
16:54 51.6 °F 41.0 °F 29.77 in West 6.0 mph 10.0 mph 67% 0.00 in 14 W/m2
17:00 50.9 °F 41.5 °F 29.77 in SSW 5.0 mph 6.0 mph 70% 0.00 in 21 W/m2
17:06 50.3 °F 41.6 °F 29.77 in SW 4.0 mph 6.0 mph 72% 0.05 in 12 W/m2
17:12 49.8 °F 41.8 °F 29.76 in SSW 3.0 mph 4.0 mph 74% 0.05 in 5 W/m2
17:18 49.5 °F 42.2 °F 29.76 in SSW 2.0 mph 4.0 mph 76% 0.05 in 7 W/m2
17:24 49.3 °F 42.7 °F 29.76 in SSW 1.0 mph 2.0 mph 78% 0.00 in 0 W/m2
17:30 49.2 °F 43.0 °F 29.76 in SSW 2.0 mph 2.0 mph 79% 0.00 in 0 W/m2
17:36 49.1 °F 42.9 °F 29.76 in South 2.0 mph 3.0 mph 79% 0.00 in 0 W/m2
17:42 49.2 °F 43.0 °F 29.76 in South 2.0 mph 2.0 mph 79% 0.00 in 0 W/m2
17:48 49.1 °F 42.9 °F 29.76 in South 2.0 mph 3.0 mph 79% 0.00 in 0 W/m2
17:54 49.0 °F 43.1 °F 29.76 in South 2.0 mph 4.0 mph 80% 0.00 in 0 W/m2
18:00 48.9 °F 43.0 °F 29.76 in South 1.0 mph 1.0 mph 80% 0.00 in 0 W/m2
18:06 48.9 °F 43.0 °F 29.77 in South 1.0 mph 3.0 mph 80% 0.00 in 0 W/m2
18:12 48.9 °F 43.0 °F 29.76 in South 2.0 mph 3.0 mph 80% 0.00 in 0 W/m2
18:18 48.9 °F 43.0 °F 29.76 in South 2.0 mph 3.0 mph 80% 0.00 in 0 W/m2
18:24 48.7 °F 43.1 °F 29.76 in Calm   2.0 mph 81% 0.00 in 0 W/m2
18:30 48.6 °F 43.0 °F 29.76 in Calm     81% 0.00 in 0 W/m2
18:36 48.5 °F 43.3 °F 29.77 in Calm     82% 0.00 in 0 W/m2
18:42 48.5 °F 43.3 °F 29.77 in Calm     82% 0.00 in 0 W/m2
18:48 48.5 °F 43.3 °F 29.78 in Calm     82% 0.00 in 0 W/m2
18:54 48.4 °F 43.5 °F 29.78 in Calm     83% 0.00 in 0 W/m2
19:00 48.2 °F 43.3 °F 29.78 in Calm     83% 0.00 in 0 W/m2
19:06 48.0 °F 43.4 °F 29.78 in Calm     84% 0.00 in 0 W/m2
19:12 47.8 °F 43.2 °F 29.78 in Calm     84% 0.00 in 0 W/m2
19:18 47.7 °F 43.4 °F 29.78 in Calm     85% 0.00 in 0 W/m2
19:24 47.5 °F 43.2 °F 29.78 in Calm     85% 0.00 in 0 W/m2
19:30 47.3 °F 43.3 °F 29.78 in Calm     86% 0.00 in 0 W/m2
19:36 47.1 °F 43.1 °F 29.78 in Calm     86% 0.00 in 0 W/m2
19:42 47.0 °F 43.3 °F 29.77 in Calm     87% 0.00 in 0 W/m2
19:48 46.9 °F 43.2 °F 29.77 in Calm     87% 0.00 in 0 W/m2
19:54 46.9 °F 43.2 °F 29.77 in Calm     87% 0.00 in 0 W/m2
20:00 46.9 °F 43.2 °F 29.77 in Calm   2.0 mph 87% 0.00 in 0 W/m2
20:06 47.2 °F 43.5 °F 29.77 in South 1.0 mph 3.0 mph 87% 0.00 in 0 W/m2
20:12 47.5 °F 43.5 °F 29.78 in South 1.0 mph 1.0 mph 86% 0.00 in 0 W/m2
20:18 47.6 °F 43.3 °F 29.78 in Calm   1.0 mph 85% 0.00 in 0 W/m2
20:24 47.8 °F 43.2 °F 29.78 in Calm     84% 0.00 in 0 W/m2
20:30 47.9 °F 43.3 °F 29.78 in Calm     84% 0.00 in 0 W/m2
20:36 47.9 °F 43.0 °F 29.78 in Calm     83% 0.00 in 0 W/m2
20:42 47.8 °F 42.9 °F 29.78 in Calm     83% 0.00 in 0 W/m2
20:48 47.6 °F 42.7 °F 29.78 in Calm     83% 0.00 in 0 W/m2
20:54 47.5 °F 42.6 °F 29.78 in Calm     83% 0.00 in 0 W/m2
21:00 47.3 °F 42.4 °F 29.78 in Calm     83% 0.00 in 0 W/m2
21:06 47.2 °F 42.6 °F 29.78 in Calm   1.0 mph 84% 0.00 in 0 W/m2
21:12 47.6 °F 43.0 °F 29.78 in SW 1.0 mph 1.0 mph 84% 0.00 in 0 W/m2
21:18 48.0 °F 43.1 °F 29.78 in SW 1.0 mph 1.0 mph 83% 0.00 in 0 W/m2
21:24 48.1 °F 42.9 °F 29.78 in Calm     82% 0.00 in 0 W/m2
21:30 48.3 °F 43.1 °F 29.78 in Calm     82% 0.00 in 0 W/m2
21:36 48.4 °F 42.8 °F 29.78 in SW 1.0 mph 1.0 mph 81% 0.00 in 0 W/m2
21:42 48.5 °F 42.9 °F 29.79 in Calm   1.0 mph 81% 0.00 in 0 W/m2
21:48 48.5 °F 42.9 °F 29.79 in Calm   1.0 mph 81% 0.00 in 0 W/m2
21:54 48.7 °F 42.8 °F 29.78 in Calm   1.0 mph 80% 0.00 in 0 W/m2
22:00 48.8 °F 42.9 °F 29.78 in SW 1.0 mph 5.0 mph 80% 0.00 in 0 W/m2
22:06 49.0 °F 42.8 °F 29.78 in West 2.0 mph 5.0 mph 79% 0.00 in 0 W/m2
22:12 49.2 °F 43.0 °F 29.78 in West 2.0 mph 2.0 mph 79% 0.00 in 0 W/m2
22:18 49.4 °F 43.2 °F 29.78 in WSW 2.0 mph 4.0 mph 79% 0.00 in 0 W/m2
22:24 49.6 °F 43.0 °F 29.78 in SSW 2.0 mph 2.0 mph 78% 0.00 in 0 W/m2
22:30 49.5 °F 42.9 °F 29.78 in WSW 1.0 mph 1.0 mph 78% 0.00 in 0 W/m2
22:36 49.4 °F 42.8 °F 29.78 in WSW 2.0 mph 2.0 mph 78% 0.00 in 0 W/m2
22:42 49.4 °F 42.8 °F 29.79 in WSW 1.0 mph 1.0 mph 78% 0.00 in 0 W/m2
22:48 49.3 °F 42.7 °F 29.79 in Calm   1.0 mph 78% 0.00 in 0 W/m2
22:54 49.3 °F 42.7 °F 29.79 in Calm   2.0 mph 78% 0.00 in 0 W/m2
23:00 49.3 °F 43.1 °F 29.79 in WNW 1.0 mph 1.0 mph 79% 0.00 in 0 W/m2
23:06 49.3 °F 42.7 °F 29.79 in West 1.0 mph 2.0 mph 78% 0.00 in 0 W/m2
23:12 49.4 °F 42.8 °F 29.79 in West 1.0 mph 2.0 mph 78% 0.00 in 0 W/m2
23:18 49.3 °F 42.7 °F 29.79 in West 1.0 mph 2.0 mph 78% 0.00 in 0 W/m2
23:24 49.3 °F 42.7 °F 29.79 in WNW 1.0 mph 2.0 mph 78% 0.00 in 0 W/m2
23:30 49.2 °F 43.0 °F 29.79 in WNW 1.0 mph 1.0 mph 79% 0.00 in 0 W/m2
23:36 49.0 °F 42.8 °F 29.80 in WNW 1.0 mph 6.0 mph 79% 0.00 in 0 W/m2
23:42 48.9 °F 42.3 °F 29.81 in WNW 2.0 mph 2.0 mph 78% 0.00 in 0 W/m2
23:48 48.6 °F 42.0 °F 29.81 in NW 2.0 mph 5.0 mph 78% 0.00 in 0 W/m2
23:54 48.4 °F 41.9 °F 29.81 in WNW 3.0 mph 4.0 mph 78% 0.00 in 0 W/m2
Country Meadow, Clay, NY, USA
Compliments of Weather Underground - 2 mb